sensor_id;sensor_type;location;lat;lon;timestamp;pressure;altitude;pressure_sealevel;temperature;humidity
32735;BME280;19112;51.076;3.706;2023-05-08T00:00:27;101914.09;;;17.44;82.23
32735;BME280;19112;51.076;3.706;2023-05-08T00:02:53;101945.41;;;17.59;82.34
32735;BME280;19112;51.076;3.706;2023-05-08T00:05:19;102002.56;;;17.79;82.59
32735;BME280;19112;51.076;3.706;2023-05-08T00:07:45;101950.41;;;17.45;82.40
32735;BME280;19112;51.076;3.706;2023-05-08T00:10:11;101859.25;;;17.05;82.50
32735;BME280;19112;51.076;3.706;2023-05-08T00:12:37;101879.91;;;17.20;82.64
32735;BME280;19112;51.076;3.706;2023-05-08T00:15:04;101753.56;;;16.48;82.20
32735;BME280;19112;51.076;3.706;2023-05-08T00:17:30;101922.13;;;17.47;81.90
32735;BME280;19112;51.076;3.706;2023-05-08T00:19:56;101948.00;;;17.57;81.23
32735;BME280;19112;51.076;3.706;2023-05-08T00:22:22;101877.97;;;17.11;81.03
32735;BME280;19112;51.076;3.706;2023-05-08T00:24:48;101981.94;;;17.69;80.51
32735;BME280;19112;51.076;3.706;2023-05-08T00:27:14;101905.44;;;17.15;80.35
32735;BME280;19112;51.076;3.706;2023-05-08T00:29:40;101910.25;;;16.93;80.85
32735;BME280;19112;51.076;3.706;2023-05-08T00:32:07;101973.63;;;17.16;81.06
32735;BME280;19112;51.076;3.706;2023-05-08T00:34:33;101864.31;;;16.60;81.01
32735;BME280;19112;51.076;3.706;2023-05-08T00:36:59;101910.09;;;16.86;81.33
32735;BME280;19112;51.076;3.706;2023-05-08T00:39:25;101872.28;;;16.60;82.15
32735;BME280;19112;51.076;3.706;2023-05-08T00:41:51;101876.78;;;16.62;82.14
32735;BME280;19112;51.076;3.706;2023-05-08T00:44:17;101811.22;;;16.20;82.21
32735;BME280;19112;51.076;3.706;2023-05-08T00:46:44;101918.63;;;16.74;82.39
32735;BME280;19112;51.076;3.706;2023-05-08T00:49:11;101915.13;;;16.75;81.90
32735;BME280;19112;51.076;3.706;2023-05-08T00:51:40;101923.34;;;16.86;81.98
32735;BME280;19112;51.076;3.706;2023-05-08T00:54:07;101922.41;;;16.84;81.84
32735;BME280;19112;51.076;3.706;2023-05-08T00:56:36;101929.91;;;17.00;81.69
32735;BME280;19112;51.076;3.706;2023-05-08T00:59:05;102001.75;;;17.45;82.03
32735;BME280;19112;51.076;3.706;2023-05-08T01:01:35;101969.13;;;17.13;82.43
32735;BME280;19112;51.076;3.706;2023-05-08T01:04:03;101939.41;;;16.92;82.72
32735;BME280;19112;51.076;3.706;2023-05-08T01:06:29;101941.06;;;16.88;82.98
32735;BME280;19112;51.076;3.706;2023-05-08T01:08:55;101875.41;;;16.43;81.93
32735;BME280;19112;51.076;3.706;2023-05-08T01:14:23;102011.53;;;17.10;82.54
32735;BME280;19112;51.076;3.706;2023-05-08T01:17:03;102008.00;;;17.11;82.55
32735;BME280;19112;51.076;3.706;2023-05-08T01:20:00;102012.31;;;17.08;82.20
32735;BME280;19112;51.076;3.706;2023-05-08T01:34:22;101840.44;;;15.92;82.60
32735;BME280;19112;51.076;3.706;2023-05-08T01:36:59;101924.09;;;16.47;82.90
32735;BME280;19112;51.076;3.706;2023-05-08T01:39:54;101711.59;;;15.28;82.03
32735;BME280;19112;51.076;3.706;2023-05-08T01:42:49;102001.09;;;16.83;82.25
32735;BME280;19112;51.076;3.706;2023-05-08T01:45:30;101922.06;;;16.37;82.81
32735;BME280;19112;51.076;3.706;2023-05-08T01:48:10;101887.88;;;16.14;82.80
32735;BME280;19112;51.076;3.706;2023-05-08T01:50:54;102007.63;;;16.96;82.85
32735;BME280;19112;51.076;3.706;2023-05-08T01:53:29;101954.63;;;16.66;82.81
32735;BME280;19112;51.076;3.706;2023-05-08T01:55:59;102018.94;;;16.89;82.39
32735;BME280;19112;51.076;3.706;2023-05-08T01:58:30;101861.31;;;16.11;82.90
32735;BME280;19112;51.076;3.706;2023-05-08T02:00:58;101920.59;;;16.48;82.83
32735;BME280;19112;51.076;3.706;2023-05-08T02:03:26;101918.81;;;16.48;82.42
32735;BME280;19112;51.076;3.706;2023-05-08T02:05:54;101846.09;;;16.04;81.93
32735;BME280;19112;51.076;3.706;2023-05-08T02:08:23;101774.81;;;15.49;82.06
32735;BME280;19112;51.076;3.706;2023-05-08T02:10:51;102009.97;;;16.84;82.21
32735;BME280;19112;51.076;3.706;2023-05-08T02:13:19;101899.38;;;16.15;82.41
32735;BME280;19112;51.076;3.706;2023-05-08T02:15:47;101947.06;;;16.46;82.15
32735;BME280;19112;51.076;3.706;2023-05-08T02:18:15;102009.88;;;16.82;82.37
32735;BME280;19112;51.076;3.706;2023-05-08T02:20:43;101932.06;;;16.47;82.09
32735;BME280;19112;51.076;3.706;2023-05-08T02:23:10;101969.72;;;16.68;82.24
32735;BME280;19112;51.076;3.706;2023-05-08T02:25:37;101959.03;;;16.65;82.21
32735;BME280;19112;51.076;3.706;2023-05-08T02:28:05;102025.94;;;16.87;82.14
32735;BME280;19112;51.076;3.706;2023-05-08T02:30:32;101974.63;;;16.53;82.65
32735;BME280;19112;51.076;3.706;2023-05-08T02:33:00;101935.28;;;16.35;82.41
32735;BME280;19112;51.076;3.706;2023-05-08T02:35:30;102014.25;;;16.79;82.74
32735;BME280;19112;51.076;3.706;2023-05-08T02:37:57;101986.44;;;16.66;82.04
32735;BME280;19112;51.076;3.706;2023-05-08T02:40:26;101943.44;;;16.44;82.20
32735;BME280;19112;51.076;3.706;2023-05-08T02:42:54;101980.28;;;16.67;82.33
32735;BME280;19112;51.076;3.706;2023-05-08T02:45:22;101980.34;;;16.68;82.64
32735;BME280;19112;51.076;3.706;2023-05-08T02:48:36;101717.72;;;15.25;81.67
32735;BME280;19112;51.076;3.706;2023-05-08T02:55:03;101981.31;;;16.72;82.03
32735;BME280;19112;51.076;3.706;2023-05-08T03:00:04;101995.72;;;16.80;82.35
32735;BME280;19112;51.076;3.706;2023-05-08T03:02:52;101903.34;;;16.31;82.25
32735;BME280;19112;51.076;3.706;2023-05-08T03:05:27;101889.19;;;16.30;82.34
32735;BME280;19112;51.076;3.706;2023-05-08T03:08:04;102003.09;;;16.93;82.27
32735;BME280;19112;51.076;3.706;2023-05-08T03:10:35;101979.94;;;16.53;82.64
32735;BME280;19112;51.076;3.706;2023-05-08T03:13:06;101999.25;;;16.81;83.05
32735;BME280;19112;51.076;3.706;2023-05-08T03:15:56;102017.47;;;17.01;82.70
32735;BME280;19112;51.076;3.706;2023-05-08T03:18:31;101873.38;;;16.35;82.47
32735;BME280;19112;51.076;3.706;2023-05-08T03:20:59;101873.22;;;16.29;82.33
32735;BME280;19112;51.076;3.706;2023-05-08T03:23:28;101995.41;;;17.04;82.74
32735;BME280;19112;51.076;3.706;2023-05-08T03:25:57;101788.34;;;15.91;82.24
32735;BME280;19112;51.076;3.706;2023-05-08T03:28:24;101951.69;;;16.88;82.16
32735;BME280;19112;51.076;3.706;2023-05-08T03:30:51;101880.53;;;16.37;82.02
32735;BME280;19112;51.076;3.706;2023-05-08T03:33:18;101889.75;;;16.52;81.86
32735;BME280;19112;51.076;3.706;2023-05-08T03:35:46;101842.84;;;16.14;82.11
32735;BME280;19112;51.076;3.706;2023-05-08T03:38:13;101925.31;;;16.61;82.03
32735;BME280;19112;51.076;3.706;2023-05-08T03:40:39;101870.84;;;16.38;81.81
32735;BME280;19112;51.076;3.706;2023-05-08T03:43:07;101938.66;;;16.63;81.67
32735;BME280;19112;51.076;3.706;2023-05-08T03:45:39;101861.84;;;16.31;81.42
32735;BME280;19112;51.076;3.706;2023-05-08T03:48:07;101929.94;;;16.68;81.22
32735;BME280;19112;51.076;3.706;2023-05-08T03:50:35;102029.16;;;17.10;81.74
32735;BME280;19112;51.076;3.706;2023-05-08T03:53:02;101972.56;;;16.74;81.38
32735;BME280;19112;51.076;3.706;2023-05-08T03:55:30;101964.59;;;16.73;81.68
32735;BME280;19112;51.076;3.706;2023-05-08T03:58:09;101939.31;;;16.56;81.44
32735;BME280;19112;51.076;3.706;2023-05-08T04:04:00;102010.31;;;16.99;81.26
32735;BME280;19112;51.076;3.706;2023-05-08T04:06:39;101807.31;;;15.75;81.66
32735;BME280;19112;51.076;3.706;2023-05-08T04:12:35;101939.28;;;16.54;81.50
32735;BME280;19112;51.076;3.706;2023-05-08T04:15:10;101974.06;;;16.66;81.78
32735;BME280;19112;51.076;3.706;2023-05-08T04:18:08;101968.88;;;16.69;81.89
32735;BME280;19112;51.076;3.706;2023-05-08T04:20:40;101830.09;;;15.68;82.15
32735;BME280;19112;51.076;3.706;2023-05-08T04:23:08;101795.84;;;15.44;82.35
32735;BME280;19112;51.076;3.706;2023-05-08T04:25:37;101902.41;;;15.97;82.22
32735;BME280;19112;51.076;3.706;2023-05-08T04:28:04;101972.41;;;16.37;82.27
32735;BME280;19112;51.076;3.706;2023-05-08T04:30:30;101982.06;;;16.35;82.52
32735;BME280;19112;51.076;3.706;2023-05-08T04:32:57;101925.88;;;16.15;82.20
32735;BME280;19112;51.076;3.706;2023-05-08T04:35:24;101941.41;;;16.03;82.53
32735;BME280;19112;51.076;3.706;2023-05-08T04:37:50;101947.66;;;16.05;82.78
32735;BME280;19112;51.076;3.706;2023-05-08T04:40:16;101937.28;;;16.12;82.87
32735;BME280;19112;51.076;3.706;2023-05-08T04:42:41;101979.69;;;16.45;82.98
32735;BME280;19112;51.076;3.706;2023-05-08T04:45:09;101767.09;;;15.25;82.57
32735;BME280;19112;51.076;3.706;2023-05-08T04:47:35;101873.75;;;15.82;82.39
32735;BME280;19112;51.076;3.706;2023-05-08T04:50:01;101918.69;;;16.11;82.66
32735;BME280;19112;51.076;3.706;2023-05-08T04:52:26;101984.34;;;16.53;82.72
32735;BME280;19112;51.076;3.706;2023-05-08T04:54:52;101990.53;;;16.53;82.92
32735;BME280;19112;51.076;3.706;2023-05-08T04:57:18;101950.31;;;16.36;82.60
32735;BME280;19112;51.076;3.706;2023-05-08T04:59:44;101996.34;;;16.71;82.67
32735;BME280;19112;51.076;3.706;2023-05-08T05:02:10;101864.78;;;16.09;82.54
32735;BME280;19112;51.076;3.706;2023-05-08T05:04:36;101956.41;;;16.67;82.55
32735;BME280;19112;51.076;3.706;2023-05-08T05:07:02;101978.91;;;16.80;82.14
32735;BME280;19112;51.076;3.706;2023-05-08T05:09:29;101967.28;;;16.74;82.15
32735;BME280;19112;51.076;3.706;2023-05-08T05:11:55;101933.34;;;16.63;82.04
32735;BME280;19112;51.076;3.706;2023-05-08T05:14:21;101887.56;;;16.35;82.02
32735;BME280;19112;51.076;3.706;2023-05-08T05:16:46;102055.34;;;17.31;81.77
32735;BME280;19112;51.076;3.706;2023-05-08T05:19:13;101776.00;;;15.60;81.21
32735;BME280;19112;51.076;3.706;2023-05-08T05:21:38;102013.81;;;16.96;81.62
32735;BME280;19112;51.076;3.706;2023-05-08T05:24:05;101959.91;;;16.64;81.56
32735;BME280;19112;51.076;3.706;2023-05-08T05:26:31;101965.34;;;16.70;81.10
32735;BME280;19112;51.076;3.706;2023-05-08T05:28:57;102069.50;;;17.29;81.01
32735;BME280;19112;51.076;3.706;2023-05-08T05:31:23;101996.09;;;16.95;81.23
32735;BME280;19112;51.076;3.706;2023-05-08T05:33:49;101991.69;;;16.96;80.98
32735;BME280;19112;51.076;3.706;2023-05-08T05:36:14;102054.34;;;17.25;81.20
32735;BME280;19112;51.076;3.706;2023-05-08T05:38:40;102025.09;;;17.22;80.72
32735;BME280;19112;51.076;3.706;2023-05-08T05:41:06;102072.69;;;17.51;80.50
32735;BME280;19112;51.076;3.706;2023-05-08T05:43:32;101938.16;;;16.77;80.54
32735;BME280;19112;51.076;3.706;2023-05-08T05:46:08;101776.13;;;15.96;80.49
32735;BME280;19112;51.076;3.706;2023-05-08T05:48:34;102034.09;;;17.29;80.29
32735;BME280;19112;51.076;3.706;2023-05-08T05:51:01;101989.19;;;17.02;80.71
32735;BME280;19112;51.076;3.706;2023-05-08T05:53:27;102045.47;;;17.23;80.72
32735;BME280;19112;51.076;3.706;2023-05-08T05:55:53;101976.13;;;16.75;80.44
32735;BME280;19112;51.076;3.706;2023-05-08T05:58:19;101962.75;;;16.72;80.76
32735;BME280;19112;51.076;3.706;2023-05-08T06:00:45;102049.03;;;17.25;80.61
32735;BME280;19112;51.076;3.706;2023-05-08T06:03:12;102006.28;;;17.13;80.33
32735;BME280;19112;51.076;3.706;2023-05-08T06:05:39;101818.28;;;16.21;79.83
32735;BME280;19112;51.076;3.706;2023-05-08T06:08:06;102049.81;;;17.58;79.27
32735;BME280;19112;51.076;3.706;2023-05-08T06:10:33;102051.16;;;17.39;79.13
32735;BME280;19112;51.076;3.706;2023-05-08T06:12:59;102018.00;;;17.21;79.56
32735;BME280;19112;51.076;3.706;2023-05-08T06:15:25;101953.63;;;16.94;79.81
32735;BME280;19112;51.076;3.706;2023-05-08T06:17:51;102090.19;;;17.77;79.98
32735;BME280;19112;51.076;3.706;2023-05-08T06:20:17;102023.69;;;17.37;80.10
32735;BME280;19112;51.076;3.706;2023-05-08T06:22:43;101899.47;;;16.86;79.73
32735;BME280;19112;51.076;3.706;2023-05-08T06:25:09;102098.66;;;17.99;79.88
32735;BME280;19112;51.076;3.706;2023-05-08T06:27:35;101995.50;;;17.42;79.61
32735;BME280;19112;51.076;3.706;2023-05-08T06:30:03;102015.28;;;17.56;79.40
32735;BME280;19112;51.076;3.706;2023-05-08T06:32:32;102048.09;;;17.96;79.25
32735;BME280;19112;51.076;3.706;2023-05-08T06:34:58;102036.47;;;17.91;79.09
32735;BME280;19112;51.076;3.706;2023-05-08T06:37:24;102085.25;;;18.33;79.36
32735;BME280;19112;51.076;3.706;2023-05-08T06:39:49;101934.50;;;17.46;79.43
32735;BME280;19112;51.076;3.706;2023-05-08T06:42:15;102095.25;;;18.47;79.42
32735;BME280;19112;51.076;3.706;2023-05-08T06:44:41;102057.59;;;18.25;79.29
32735;BME280;19112;51.076;3.706;2023-05-08T06:47:07;102008.34;;;18.00;79.19
32735;BME280;19112;51.076;3.706;2023-05-08T06:49:35;101984.31;;;17.96;79.58
32735;BME280;19112;51.076;3.706;2023-05-08T06:52:01;101959.25;;;17.83;79.32
32735;BME280;19112;51.076;3.706;2023-05-08T06:54:27;102059.78;;;18.46;78.78
32735;BME280;19112;51.076;3.706;2023-05-08T06:56:53;102048.25;;;18.46;77.77
32735;BME280;19112;51.076;3.706;2023-05-08T06:59:20;101971.84;;;17.93;77.40
32735;BME280;19112;51.076;3.706;2023-05-08T07:01:46;102058.69;;;18.37;77.58
32735;BME280;19112;51.076;3.706;2023-05-08T07:04:11;102093.59;;;18.52;77.68
32735;BME280;19112;51.076;3.706;2023-05-08T07:06:38;102099.88;;;18.55;77.84
32735;BME280;19112;51.076;3.706;2023-05-08T07:09:04;101962.75;;;17.80;77.92
32735;BME280;19112;51.076;3.706;2023-05-08T07:11:30;101998.69;;;18.05;78.06
32735;BME280;19112;51.076;3.706;2023-05-08T07:13:56;102055.50;;;18.53;78.15
32735;BME280;19112;51.076;3.706;2023-05-08T07:16:21;102087.75;;;18.68;77.70
32735;BME280;19112;51.076;3.706;2023-05-08T07:18:47;102068.84;;;18.54;77.85
32735;BME280;19112;51.076;3.706;2023-05-08T07:21:13;101774.19;;;16.99;77.68
32735;BME280;19112;51.076;3.706;2023-05-08T07:23:40;102054.56;;;18.51;77.11
32735;BME280;19112;51.076;3.706;2023-05-08T07:26:06;101988.47;;;18.25;77.57
32735;BME280;19112;51.076;3.706;2023-05-08T07:28:33;101942.91;;;18.07;77.65
32735;BME280;19112;51.076;3.706;2023-05-08T07:30:58;101987.78;;;18.36;76.93
32735;BME280;19112;51.076;3.706;2023-05-08T07:33:24;102052.50;;;18.80;77.11
32735;BME280;19112;51.076;3.706;2023-05-08T07:35:50;102056.13;;;18.85;76.51
32735;BME280;19112;51.076;3.706;2023-05-08T07:38:17;102026.50;;;18.67;76.36
32735;BME280;19112;51.076;3.706;2023-05-08T07:40:43;102096.66;;;19.17;76.30
32735;BME280;19112;51.076;3.706;2023-05-08T07:43:08;102102.13;;;19.23;76.20
32735;BME280;19112;51.076;3.706;2023-05-08T07:45:35;102071.69;;;19.10;76.15
32735;BME280;19112;51.076;3.706;2023-05-08T07:48:01;102095.84;;;19.21;75.95
32735;BME280;19112;51.076;3.706;2023-05-08T07:50:27;102094.13;;;19.23;76.16
32735;BME280;19112;51.076;3.706;2023-05-08T07:52:53;102062.88;;;19.13;76.32
32735;BME280;19112;51.076;3.706;2023-05-08T07:55:19;102087.41;;;19.45;76.03
32735;BME280;19112;51.076;3.706;2023-05-08T07:57:45;101933.28;;;18.59;75.39
32735;BME280;19112;51.076;3.706;2023-05-08T08:00:13;101988.00;;;18.93;74.88
32735;BME280;19112;51.076;3.706;2023-05-08T08:02:40;102096.44;;;19.55;74.62
32735;BME280;19112;51.076;3.706;2023-05-08T08:05:07;102097.47;;;19.61;74.87
32735;BME280;19112;51.076;3.706;2023-05-08T08:07:33;101987.09;;;18.91;73.87
32735;BME280;19112;51.076;3.706;2023-05-08T08:10:00;102032.81;;;19.20;74.31
32735;BME280;19112;51.076;3.706;2023-05-08T08:12:27;102033.84;;;19.28;74.59
32735;BME280;19112;51.076;3.706;2023-05-08T08:14:53;102071.69;;;19.60;74.67
32735;BME280;19112;51.076;3.706;2023-05-08T08:17:19;102105.88;;;19.89;74.02
32735;BME280;19112;51.076;3.706;2023-05-08T08:19:45;102074.66;;;19.80;73.65
32735;BME280;19112;51.076;3.706;2023-05-08T08:22:11;102034.50;;;19.68;73.54
32735;BME280;19112;51.076;3.706;2023-05-08T08:24:37;101978.22;;;19.48;73.45
32735;BME280;19112;51.076;3.706;2023-05-08T08:27:03;102107.25;;;20.22;73.06
32735;BME280;19112;51.076;3.706;2023-05-08T08:29:29;102009.75;;;19.77;73.22
32735;BME280;19112;51.076;3.706;2023-05-08T08:31:56;102109.16;;;20.32;71.90
32735;BME280;19112;51.076;3.706;2023-05-08T08:34:22;101932.69;;;19.31;70.01
32735;BME280;19112;51.076;3.706;2023-05-08T08:36:48;102109.34;;;20.46;70.71
32735;BME280;19112;51.076;3.706;2023-05-08T08:39:14;102010.81;;;19.88;69.44
32735;BME280;19112;51.076;3.706;2023-05-08T08:41:40;101973.22;;;19.70;69.05
32735;BME280;19112;51.076;3.706;2023-05-08T08:44:06;101981.25;;;19.71;69.13
32735;BME280;19112;51.076;3.706;2023-05-08T08:46:32;102021.53;;;19.94;69.54
32735;BME280;19112;51.076;3.706;2023-05-08T08:48:58;102034.13;;;20.04;69.43
32735;BME280;19112;51.076;3.706;2023-05-08T08:51:33;102092.25;;;20.31;69.12
32735;BME280;19112;51.076;3.706;2023-05-08T08:54:11;102052.13;;;20.24;69.26
32735;BME280;19112;51.076;3.706;2023-05-08T08:56:40;102012.72;;;19.98;68.94
32735;BME280;19112;51.076;3.706;2023-05-08T08:59:08;102062.16;;;20.43;68.56
32735;BME280;19112;51.076;3.706;2023-05-08T09:01:36;102121.38;;;20.81;67.92
32735;BME280;19112;51.076;3.706;2023-05-08T09:04:03;102126.69;;;20.78;67.30
32735;BME280;19112;51.076;3.706;2023-05-08T09:06:32;102121.44;;;20.87;67.10
32735;BME280;19112;51.076;3.706;2023-05-08T09:09:01;101991.41;;;20.00;66.34
32735;BME280;19112;51.076;3.706;2023-05-08T09:11:27;102097.06;;;20.57;66.40
32735;BME280;19112;51.076;3.706;2023-05-08T09:13:57;102124.91;;;20.82;65.30
32735;BME280;19112;51.076;3.706;2023-05-08T09:16:24;102126.63;;;20.72;64.38
32735;BME280;19112;51.076;3.706;2023-05-08T09:18:50;101996.81;;;20.07;64.44
32735;BME280;19112;51.076;3.706;2023-05-08T09:21:16;101971.84;;;19.99;65.02
32735;BME280;19112;51.076;3.706;2023-05-08T09:24:02;102076.81;;;20.74;63.86
32735;BME280;19112;51.076;3.706;2023-05-08T09:26:38;102101.84;;;20.85;64.24
32735;BME280;19112;51.076;3.706;2023-05-08T09:29:17;101965.56;;;19.96;64.41
32735;BME280;19112;51.076;3.706;2023-05-08T09:31:49;102083.78;;;20.63;64.89
32735;BME280;19112;51.076;3.706;2023-05-08T09:34:29;102035.56;;;20.48;64.49
32735;BME280;19112;51.076;3.706;2023-05-08T09:39:30;102122.69;;;21.23;63.94
32735;BME280;19112;51.076;3.706;2023-05-08T09:42:01;101953.63;;;20.39;63.51
32735;BME280;19112;51.076;3.706;2023-05-08T09:44:28;101893.53;;;19.91;61.69
32735;BME280;19112;51.076;3.706;2023-05-08T09:47:13;102100.38;;;21.15;62.55
32735;BME280;19112;51.076;3.706;2023-05-08T09:49:54;101994.66;;;20.49;62.58
32735;BME280;19112;51.076;3.706;2023-05-08T09:52:21;102137.00;;;21.27;62.18
32735;BME280;19112;51.076;3.706;2023-05-08T09:55:02;102079.81;;;21.06;62.43
32735;BME280;19112;51.076;3.706;2023-05-08T09:57:31;101955.41;;;20.38;62.33
32735;BME280;19112;51.076;3.706;2023-05-08T10:00:05;102137.09;;;21.34;62.53
32735;BME280;19112;51.076;3.706;2023-05-08T10:02:32;102077.19;;;21.09;62.09
32735;BME280;19112;51.076;3.706;2023-05-08T10:04:58;102102.13;;;21.13;62.17
32735;BME280;19112;51.076;3.706;2023-05-08T10:07:30;101980.56;;;20.59;63.18
32735;BME280;19112;51.076;3.706;2023-05-08T10:10:05;101990.50;;;20.77;62.05
32735;BME280;19112;51.076;3.706;2023-05-08T10:12:32;102136.47;;;21.66;61.13
32735;BME280;19112;51.076;3.706;2023-05-08T10:14:58;102100.66;;;21.45;61.72
32735;BME280;19112;51.076;3.706;2023-05-08T10:17:30;102016.56;;;21.02;59.53
32735;BME280;19112;51.076;3.706;2023-05-08T10:20:06;102071.84;;;21.14;61.19
32735;BME280;19112;51.076;3.706;2023-05-08T10:22:36;102096.03;;;21.26;60.66
32735;BME280;19112;51.076;3.706;2023-05-08T10:25:03;102063.72;;;21.03;60.20
32735;BME280;19112;51.076;3.706;2023-05-08T10:27:51;102143.28;;;21.30;61.13
32735;BME280;19112;51.076;3.706;2023-05-08T10:30:24;101991.03;;;20.44;61.55
32735;BME280;19112;51.076;3.706;2023-05-08T10:32:52;102039.44;;;20.77;61.20
32735;BME280;19112;51.076;3.706;2023-05-08T10:35:21;101981.44;;;20.58;61.89
32735;BME280;19112;51.076;3.706;2023-05-08T10:37:48;102077.41;;;21.32;61.62
32735;BME280;19112;51.076;3.706;2023-05-08T10:40:15;102081.06;;;21.45;59.90
32735;BME280;19112;51.076;3.706;2023-05-08T10:42:44;101945.03;;;20.63;60.60
32735;BME280;19112;51.076;3.706;2023-05-08T10:45:10;101995.19;;;21.02;59.86
32735;BME280;19112;51.076;3.706;2023-05-08T10:53:56;102101.19;;;22.13;59.94
32735;BME280;19112;51.076;3.706;2023-05-08T10:56:28;102103.88;;;22.19;59.70
32735;BME280;19112;51.076;3.706;2023-05-08T10:58:58;102017.13;;;21.76;59.33
32735;BME280;19112;51.076;3.706;2023-05-08T11:01:25;101997.41;;;21.52;58.27
32735;BME280;19112;51.076;3.706;2023-05-08T11:03:51;102041.19;;;21.74;58.12
32735;BME280;19112;51.076;3.706;2023-05-08T11:06:44;102047.56;;;21.97;57.65
32735;BME280;19112;51.076;3.706;2023-05-08T11:09:44;102101.34;;;22.45;59.09
32735;BME280;19112;51.076;3.706;2023-05-08T11:12:25;102069.22;;;22.46;58.29
32735;BME280;19112;51.076;3.706;2023-05-08T11:15:03;102038.88;;;22.41;58.75
32735;BME280;19112;51.076;3.706;2023-05-08T11:17:31;101982.63;;;22.23;58.04
32735;BME280;19112;51.076;3.706;2023-05-08T11:20:08;102074.72;;;22.88;57.51
32735;BME280;19112;51.076;3.706;2023-05-08T11:22:35;101913.03;;;22.11;55.59
32735;BME280;19112;51.076;3.706;2023-05-08T11:25:03;102102.47;;;23.07;55.75
32735;BME280;19112;51.076;3.706;2023-05-08T11:30:38;102008.34;;;22.00;57.59
32735;BME280;19112;51.076;3.706;2023-05-08T11:35:54;102038.81;;;22.21;57.88
32735;BME280;19112;51.076;3.706;2023-05-08T11:46:14;101950.53;;;22.31;55.75
32735;BME280;19112;51.076;3.706;2023-05-08T11:48:40;101950.59;;;22.54;55.02
32735;BME280;19112;51.076;3.706;2023-05-08T11:51:06;102047.09;;;23.18;55.77
32735;BME280;19112;51.076;3.706;2023-05-08T11:53:33;102089.06;;;23.37;55.40
32735;BME280;19112;51.076;3.706;2023-05-08T11:55:59;101955.94;;;22.84;55.52
32735;BME280;19112;51.076;3.706;2023-05-08T11:58:26;102009.53;;;23.42;54.92
32735;BME280;19112;51.076;3.706;2023-05-08T12:00:52;102018.44;;;23.58;53.71
32735;BME280;19112;51.076;3.706;2023-05-08T12:03:23;101994.34;;;23.46;54.53
32735;BME280;19112;51.076;3.706;2023-05-08T12:05:56;102056.00;;;23.78;54.19
32735;BME280;19112;51.076;3.706;2023-05-08T12:08:22;101996.16;;;23.36;53.65
32735;BME280;19112;51.076;3.706;2023-05-08T12:10:56;101942.56;;;22.86;53.47
32735;BME280;19112;51.076;3.706;2023-05-08T12:13:28;101997.94;;;23.00;53.78
32735;BME280;19112;51.076;3.706;2023-05-08T12:15:59;102063.19;;;23.33;54.05
32735;BME280;19112;51.076;3.706;2023-05-08T12:18:27;101995.22;;;22.71;54.90
32735;BME280;19112;51.076;3.706;2023-05-08T12:21:00;101989.84;;;22.68;55.42
32735;BME280;19112;51.076;3.706;2023-05-08T12:23:27;102033.59;;;22.80;56.01
32735;BME280;19112;51.076;3.706;2023-05-08T12:25:54;101980.91;;;22.45;55.61
32735;BME280;19112;51.076;3.706;2023-05-08T12:28:23;102034.47;;;22.66;55.83
32735;BME280;19112;51.076;3.706;2023-05-08T12:30:49;102060.41;;;22.81;55.95
32735;BME280;19112;51.076;3.706;2023-05-08T12:33:15;102022.88;;;22.54;56.16
32735;BME280;19112;51.076;3.706;2023-05-08T12:35:42;102058.59;;;22.66;56.42
32735;BME280;19112;51.076;3.706;2023-05-08T12:38:08;102023.69;;;22.36;56.40
32735;BME280;19112;51.076;3.706;2023-05-08T12:40:45;101943.13;;;21.71;56.80
32735;BME280;19112;51.076;3.706;2023-05-08T12:43:11;101983.31;;;21.79;57.01
32735;BME280;19112;51.076;3.706;2023-05-08T12:45:39;101992.25;;;21.84;57.13
32735;BME280;19112;51.076;3.706;2023-05-08T12:48:11;101808.94;;;20.69;58.02
32735;BME280;19112;51.076;3.706;2023-05-08T12:50:40;101896.41;;;21.08;58.05
32735;BME280;19112;51.076;3.706;2023-05-08T12:53:20;101987.75;;;21.82;58.49
32735;BME280;19112;51.076;3.706;2023-05-08T12:55:52;102010.13;;;22.04;58.65
32735;BME280;19112;51.076;3.706;2023-05-08T12:58:21;101961.06;;;21.92;57.96
32735;BME280;19112;51.076;3.706;2023-05-08T13:00:51;101781.50;;;20.93;57.20
32735;BME280;19112;51.076;3.706;2023-05-08T13:03:26;101853.03;;;21.43;57.44
32735;BME280;19112;51.076;3.706;2023-05-08T13:05:55;102034.41;;;22.46;57.98
32735;BME280;19112;51.076;3.706;2023-05-08T13:10:59;101890.47;;;21.51;57.66
32735;BME280;19112;51.076;3.706;2023-05-08T13:13:28;102012.94;;;22.25;58.06
32735;BME280;19112;51.076;3.706;2023-05-08T13:15:55;102040.69;;;22.50;57.21
32735;BME280;19112;51.076;3.706;2023-05-08T13:18:24;101936.16;;;22.09;57.13
32735;BME280;19112;51.076;3.706;2023-05-08T13:20:53;101980.91;;;22.57;56.51
32735;BME280;19112;51.076;3.706;2023-05-08T13:23:19;102034.59;;;23.23;55.50
32735;BME280;19112;51.076;3.706;2023-05-08T13:25:45;101976.53;;;23.08;54.75
32735;BME280;19112;51.076;3.706;2023-05-08T13:28:10;101872.94;;;22.75;54.06
32735;BME280;19112;51.076;3.706;2023-05-08T13:30:37;102007.72;;;23.75;52.23
32735;BME280;19112;51.076;3.706;2023-05-08T13:33:04;101859.56;;;22.96;52.79
32735;BME280;19112;51.076;3.706;2023-05-08T13:35:30;101980.03;;;23.76;52.32
32735;BME280;19112;51.076;3.706;2023-05-08T13:37:57;101925.50;;;23.62;51.78
32735;BME280;19112;51.076;3.706;2023-05-08T13:40:24;102030.84;;;24.16;52.34
32735;BME280;19112;51.076;3.706;2023-05-08T13:42:50;102032.63;;;24.17;51.61
32735;BME280;19112;51.076;3.706;2023-05-08T13:45:16;102034.44;;;24.15;51.67
32735;BME280;19112;51.076;3.706;2023-05-08T13:47:44;102023.66;;;24.24;51.73
32735;BME280;19112;51.076;3.706;2023-05-08T13:50:12;102026.28;;;24.33;52.64
32735;BME280;19112;51.076;3.706;2023-05-08T13:52:39;102015.47;;;24.58;50.63